Latest Weather Observations for Territory Grape Farm

IDD60801

Issued at 3:01 pm CST Saturday 5 September 2015 (issued every 30 minutes, with the page automatically refreshed every 10 minutes)

About weather observations | Map of weather stations | Latest weather observations for NT | Other Formats
Station Details ID: 015643 Name: TERRITORY GRAPE FARM Lat: -22.45 Lon: 133.64 Height: 565.6 m
Data from the previous 72 hours. | See also: Recent months at Territory Grape Farm
Date/Time
CST
Temp
°C
App
Temp
°C
Dew
Point
Rel
Hum
%
Delta-T
°C
Wind Press
QNH
hPa
Press
MSL
hPa
Rain
since 9 am
mm
Dir
 
Spd
km/h
Gust
km/h
Spd
kts
Gust
kts
05/03:00pm 25.8 22.1 -0.3 18 12.3 S 9 19 5 10 1019.1 1016.6 0.0
05/02:30pm 25.3 22.2 0.0 19 12.0 N 6 13 3 7 1019.4 1016.9 0.0
05/02:00pm 25.2 22.8 2.0 22 11.4 ENE 4 9 2 5 1020.2 1017.7 0.0
05/01:30pm 24.7 21.7 2.2 23 11.0 ESE 7 13 4 7 1020.6 1018.1 0.0
05/01:00pm 23.3 20.9 2.2 25 10.3 S 4 9 2 5 1021.2 1018.7 0.0
05/12:30pm 23.4 20.2 2.8 26 10.1 NNE 9 15 5 8 1022.2 1019.7 0.0
05/12:00pm 22.9 19.8 3.4 28 9.7 E 9 15 5 8 1022.8 1020.4 0.0
05/11:30am 21.6 18.0 2.8 29 9.1 E 11 19 6 10 1023.3 1020.9 0.0
05/11:00am 21.2 17.2 3.0 30 8.9 E 13 26 7 14 1024.0 1021.5 0.0
05/10:30am 20.0 15.2 2.8 32 8.2 ENE 17 26 9 14 1024.3 1021.8 0.0
05/10:00am 19.2 14.4 2.6 33 7.9 E 17 28 9 15 1024.5 1022.1 0.0
05/09:30am 18.3 13.2 3.0 36 7.3 E 19 28 10 15 1024.6 1022.2 0.0
05/09:00am 16.9 12.7 3.6 41 6.3 ENE 15 19 8 10 1024.5 1022.1 0.0
05/08:30am 15.1 10.0 3.3 45 5.5 E 19 24 10 13 1024.4 1022.0 0.0
05/08:00am 12.2 9.5 2.9 53 4.2 E 6 11 3 6 1024.2 1021.7 0.0
05/07:30am 9.9 7.1 2.3 59 3.3 SE 6 6 3 3 1023.9 1021.4 0.0
05/07:00am 9.0 6.1 2.6 64 2.8 SSE 7 9 4 5 1023.3 1020.9 0.0
05/06:30am 8.7 5.8 2.7 66 2.6 SSE 7 7 4 4 1023.1 1020.7 0.0
05/06:00am 8.4 5.6 2.0 64 2.7 SSE 6 7 3 4 1022.8 1020.4 0.0
05/05:30am 8.4 5.4 1.1 60 3.1 SSE 6 6 3 3 1022.4 1019.9 0.0
05/05:00am 9.2 6.3 1.6 59 3.3 SSE 6 7 3 4 1022.1 1019.6 0.0
05/04:30am 10.2 7.4 3.0 61 3.2 SSE 7 7 4 4 1022.0 1019.5 0.0
05/04:00am 8.8 5.9 1.5 60 3.1 SSE 6 7 3 4 1021.8 1019.4 0.0
05/03:30am 8.8 6.2 1.0 58 3.3 ESE 4 4 2 2 1021.8 1019.4 0.0
05/03:00am 9.2 7.4 1.1 57 3.4 CALM 0 0 0 0 1022.2 1019.7 0.0
05/02:30am 9.6 7.0 0.8 54 3.7 E 4 6 2 3 1022.3 1019.8 0.0
05/02:00am 10.4 8.1 0.7 51 4.1 ESE 2 2 1 1 1022.2 1019.7 0.0
05/01:30am 12.9 9.7 3.0 51 4.5 SE 9 9 5 5 1022.2 1019.7 0.0
05/01:00am 12.3 8.9 1.9 49 4.6 ESE 9 11 5 6 1022.4 1019.9 0.0
05/12:30am 13.2 9.8 1.8 46 5.1 E 9 11 5 6 1022.5 1020.0 0.0
05/12:00am 13.7 10.2 1.4 43 5.4 ESE 9 9 5 5 1022.7 1020.2 0.0
 
Date/Time
CST
Temp
°C
App
Temp
°C
Dew
Point
Rel
Hum
%
Delta-T
°C
Wind Press
QNH
hPa
Press
MSL
hPa
Rain
since 9 am
mm
Dir
 
Spd
km/h
Gust
km/h
Spd
kts
Gust
kts
04/11:30pm 15.0 11.6 1.9 41 5.9 E 9 11 5 6 1022.9 1020.5 0.0
04/11:00pm 16.0 11.8 1.7 38 6.5 ESE 13 15 7 8 1022.8 1020.4 0.0
04/10:30pm 16.9 12.3 1.4 35 7.1 ESE 15 17 8 9 1022.8 1020.4 0.0
04/10:00pm 17.6 13.0 1.6 34 7.4 SE 15 19 8 10 1022.7 1020.2 0.0
04/09:30pm 14.2 10.7 -2.7 31 6.9 SE 6 6 3 3 1022.7 1020.2 0.0
04/09:00pm 15.2 12.1 -2.7 29 7.4 E 4 4 2 2 1022.5 1020.0 0.0
04/08:30pm 16.2 12.4 -3.8 25 8.1 ESE 7 7 4 4 1022.2 1019.7 0.0
04/08:00pm 18.6 15.8 -0.7 27 8.6 SSE 4 4 2 2 1021.6 1019.2 0.0
04/07:30pm 18.7 16.0 -2.3 24 9.0 SSE 2 2 1 1 1021.2 1018.7 0.0
04/07:00pm 20.9 18.0 -1.0 23 9.9 S 4 6 2 3 1020.9 1018.4 0.0
04/06:30pm 23.0 19.7 -1.1 20 11.0 SSW 6 6 3 3 1020.7 1018.2 0.0
04/06:00pm 24.8 21.3 -1.1 18 12.0 WSW 7 11 4 6 1020.5 1018.0 0.0
04/05:30pm 25.3 22.1 -0.7 18 12.2 SW 6 9 3 5 1020.4 1017.9 0.0
04/05:00pm 25.5 21.6 -1.3 17 12.4 SW 9 17 5 9 1020.4 1017.9 0.0
04/04:30pm 25.8 21.6 -1.1 17 12.5 SW 11 20 6 11 1020.4 1017.9 0.0
04/04:00pm 25.6 22.8 -0.5 18 12.3 WNW 4 7 2 4 1020.4 1017.9 0.0
04/03:30pm 26.0 23.0 0.6 19 12.2 SE 6 11 3 6 1020.5 1018.0 0.0
04/03:00pm 25.1 21.6 1.3 21 11.5 SSE 9 13 5 7 1020.7 1018.2 0.0
04/02:30pm 25.4 22.4 0.8 20 11.8 NNW 6 9 3 5 1020.9 1018.4 0.0
04/02:00pm 24.1 20.8 2.3 24 10.7 E 9 19 5 10 1021.4 1019.0 0.0
04/01:30pm 23.8 20.5 2.6 25 10.4 ENE 9 17 5 9 1022.0 1019.5 0.0
04/01:00pm 22.7 19.7 2.2 26 9.9 E 7 19 4 10 1022.6 1020.1 0.0
04/12:30pm 22.7 19.5 2.8 27 9.7 E 9 15 5 8 1023.2 1020.8 0.0
04/12:00pm 22.2 18.6 2.8 28 9.4 ENE 11 19 6 10 1023.8 1021.3 0.0
04/11:30am 21.6 16.9 3.3 30 9.0 E 17 32 9 17 1024.3 1021.8 0.0
04/11:00am 20.5 16.2 3.3 32 8.4 E 15 24 8 13 1024.8 1022.4 0.0
04/10:30am 19.6 14.5 3.3 34 7.9 E 19 28 10 15 1025.1 1022.7 0.0
04/10:00am 18.9 14.3 3.5 36 7.5 E 17 24 9 13 1025.2 1022.8 0.0
04/09:30am 18.0 13.1 3.9 39 6.8 ESE 19 24 10 13 1025.2 1022.8 0.0
04/09:00am 16.3 11.3 3.7 43 6.0 ESE 19 28 10 15 1025.1 1022.7 0.0
04/08:30am 14.2 11.0 3.1 47 5.1 ESE 9 13 5 7 1024.8 1022.4 0.0
04/08:00am 11.0 8.5 1.8 53 4.0 SSE 4 6 2 3 1024.4 1022.0 0.0
04/07:30am 7.8 5.1 0.5 60 3.0 SSW 4 6 2 3 1024.1 1021.6 0.0
04/07:00am 5.9 3.0 -0.8 62 2.6 SW 4 4 2 2 1023.9 1021.4 0.0
04/06:30am 5.5 2.4 -2.3 57 2.9 SSW 4 4 2 2 1023.5 1021.1 0.0
04/06:00am 6.0 3.0 -2.1 56 3.1 S 4 4 2 2 1023.0 1020.6 0.0
04/05:30am 7.8 4.6 -0.2 57 3.2 SSE 6 7 3 4 1022.7 1020.2 0.0
04/05:00am 8.0 4.7 -1.0 53 3.6 SSE 6 7 3 4 1022.4 1019.9 0.0
04/04:30am 8.2 4.9 -1.6 50 3.8 SSE 6 7 3 4 1022.3 1019.8 0.0
04/04:00am 8.8 5.5 -1.6 48 4.1 S 6 7 3 4 1022.4 1019.9 0.0
04/03:30am 8.9 5.5 -2.4 45 4.4 S 6 7 3 4 1022.6 1020.1 0.0
04/03:00am 9.8 6.3 -1.6 45 4.5 SSE 7 9 4 5 1022.7 1020.2 0.0
04/02:30am 8.7 5.6 -2.9 44 4.4 S 4 6 2 3 1022.8 1020.4 0.0
04/02:00am 9.4 6.2 -3.5 40 4.9 SSE 4 4 2 2 1022.8 1020.4 0.0
04/01:30am 11.0 7.5 -2.8 38 5.4 SE 6 7 3 4 1022.9 1020.5 0.0
04/01:00am 11.6 7.9 -2.6 37 5.7 SSE 7 11 4 6 1023.2 1020.8 0.0
04/12:30am 11.4 7.8 -3.5 35 5.8 SE 6 6 3 3 1023.3 1020.9 0.0
04/12:00am 12.8 8.8 -2.6 34 6.2 SSE 9 11 5 6 1023.6 1021.2 0.0
 
Date/Time
CST
Temp
°C
App
Temp
°C
Dew
Point
Rel
Hum
%
Delta-T
°C
Wind Press
QNH
hPa
Press
MSL
hPa
Rain
since 9 am
mm
Dir
 
Spd
km/h
Gust
km/h
Spd
kts
Gust
kts
03/11:30pm 12.6 8.4 -3.6 32 6.3 SE 9 13 5 7 1023.5 1021.1 0.0
03/11:00pm 13.3 8.7 -3.9 30 6.8 SE 11 13 6 7 1023.3 1020.9 0.0
03/10:30pm 13.7 9.2 -3.5 30 6.8 SE 11 13 6 7 1023.2 1020.8 0.0
03/10:00pm 14.4 9.8 -3.9 28 7.3 SE 11 13 6 7 1022.9 1020.5 0.0
03/09:30pm 14.3 10.3 -5.4 25 7.6 E 7 11 4 6 1022.5 1020.0 0.0
03/09:00pm 15.6 11.6 -5.4 23 8.2 ENE 7 9 4 5 1022.4 1019.9 0.0
03/08:30pm 16.1 10.8 -6.8 20 8.7 E 13 15 7 8 1022.1 1019.6 0.0
03/08:00pm 18.3 14.5 -5.7 19 9.6 E 6 7 3 4 1021.5 1019.1 0.0
03/07:30pm 18.7 14.6 -6.8 17 10.0 ENE 7 7 4 4 1021.1 1018.6 0.0
03/07:00pm 20.3 16.3 -7.1 15 10.9 ENE 6 6 3 3 1020.8 1018.3 0.0
03/06:30pm 22.1 18.2 -6.6 14 11.7 NE 6 6 3 3 1020.6 1018.1 0.0
03/06:00pm 24.4 20.9 -6.8 12 12.9 NNE 4 6 2 3 1020.4 1017.9 0.0
03/05:30pm 25.2 21.6 -7.3 11 13.4 ESE 4 7 2 4 1020.2 1017.7 0.0
03/05:00pm 26.3 23.2 -6.5 11 13.9 ENE 2 6 1 3 1020.1 1017.6 0.0
03/04:30pm 26.1 22.6 -6.6 11 13.8 N 4 6 2 3 1020.1 1017.6 0.0
03/04:00pm 26.6 23.5 -6.2 11 14.0 SW 2 13 1 7 1020.2 1017.7 0.0
03/03:30pm 25.5 20.2 -7.1 11 13.6 E 13 22 7 12 1020.3 1017.8 0.0
03/03:00pm 25.1 20.5 -7.4 11 13.4 NNE 9 17 5 9 1020.5 1018.0 0.0
03/02:30pm 24.8 20.9 -4.5 14 12.7 ENE 7 17 4 9 1020.7 1018.2 0.0
03/02:00pm 24.6 20.7 -4.6 14 12.7 ENE 7 15 4 8 1021.2 1018.7 0.0
03/01:30pm 24.0 19.8 -4.2 15 12.2 E 9 19 5 10 1021.7 1019.3 0.0
03/01:00pm 22.8 17.8 -4.3 16 11.6 SE 13 24 7 13 1022.3 1019.8 0.0
03/12:30pm 22.2 16.9 -4.0 17 11.2 E 15 22 8 12 1022.7 1020.2 0.0
03/12:00pm 21.1 15.7 -4.1 18 10.6 SE 15 22 8 12 1023.2 1020.8 0.0
03/11:30am 20.6 15.8 -2.5 21 10.0 SSE 13 20 7 11 1024.0 1021.5 0.0
03/11:00am 19.8 15.0 -2.5 22 9.6 SE 13 22 7 12 1024.4 1022.0 0.0
03/10:30am 18.3 14.0 -2.0 25 8.7 SE 11 20 6 11 1024.4 1022.0 0.0
03/10:00am 17.3 12.2 -1.9 27 8.2 SSE 15 22 8 12 1024.4 1022.0 0.0
03/09:30am 16.0 10.1 -2.5 28 7.7 SE 19 24 10 13 1024.4 1022.0 0.0
03/09:00am 15.2 10.3 -3.2 28 7.5 SE 13 19 7 10 1024.1 1021.6 0.0
03/08:30am 14.5 10.3 -3.8 28 7.3 SE 9 17 5 9 1023.9 1021.4 0.0
03/08:00am 11.6 7.7 -4.5 32 6.1 S 7 9 4 5 1023.6 1021.2 0.0
03/07:30am 6.6 3.7 -8.1 34 4.8 CALM 0 2 0 1 1023.1 1020.7 0.0
03/07:00am 4.0 -0.1 -8.7 39 4.0 S 6 6 3 3 1022.6 1020.1 0.0
03/06:30am 3.7 -0.1 -9.3 38 4.2 SSW 4 6 2 3 1022.3 1019.8 0.0
03/06:00am 4.8 1.1 -8.6 37 4.2 S 4 6 2 3 1021.8 1019.4 0.0
03/05:30am 4.5 1.1 -9.2 36 4.2 NW 2 2 1 1 1021.6 1019.2 0.0
03/05:00am 3.9 0.1 -9.4 37 4.3 NW 4 6 2 3 1021.4 1019.0 0.0
03/04:30am 4.0 1.0 -9.7 36 4.4 CALM 0 0 0 0 1021.2 1018.7 0.0
03/04:00am 4.5 1.5 -9.6 35 4.3 CALM 0 0 0 0 1021.0 1018.5 0.0
03/03:30am 6.0 2.2 -9.4 32 4.8 ESE 4 6 2 3 1020.8 1018.3 0.0
03/03:00am 7.0 2.9 -9.4 30 5.2 ESE 6 7 3 4 1020.8 1018.3 0.0
03/02:30am 7.4 2.3 -9.0 30 5.3 NE 11 15 6 8 1020.9 1018.4 0.0
03/02:00am 7.9 4.1 -9.9 27 5.7 ESE 4 6 2 3 1020.5 1018.0 0.0
03/01:30am 10.2 5.2 -8.4 26 6.4 SSW 11 13 6 7 1020.4 1017.9 0.0
03/01:00am 9.9 5.3 -8.2 27 6.2 SSW 9 11 5 6 1020.6 1018.1 0.0
03/12:30am 9.6 5.0 -7.5 29 5.9 SW 9 11 5 6 1020.8 1018.3 0.0
03/12:00am 10.6 6.4 -7.6 27 6.4 SSW 7 9 4 5 1020.9 1018.4 0.0
 
Date/Time
CST
Temp
°C
App
Temp
°C
Dew
Point
Rel
Hum
%
Delta-T
°C
Wind Press
QNH
hPa
Press
MSL
hPa
Rain
since 9 am
mm
Dir
 
Spd
km/h
Gust
km/h
Spd
kts
Gust
kts
02/11:30pm 11.6 7.1 -6.7 27 6.6 SSW 9 11 5 6 1020.9 1018.4 0.0
02/11:00pm 13.2 8.7 -6.9 24 7.4 S 9 13 5 7 1020.9 1018.4 0.0
02/10:30pm 14.4 9.6 -6.4 23 7.8 S 11 15 6 8 1020.8 1018.3 0.0
02/10:00pm 14.5 10.4 -6.4 23 7.9 SSE 7 11 4 6 1020.7 1018.2 0.0
02/09:30pm 16.9 12.0 -6.8 19 9.1 S 11 15 6 8 1020.5 1018.0 0.0
02/09:00pm 18.3 12.7 -6.4 18 9.7 S 15 20 8 11 1020.1 1017.6 0.0
02/08:30pm 17.9 13.9 -6.0 19 9.4 S 7 9 4 5 1019.4 1016.9 0.0
02/08:00pm 19.1 15.1 -5.7 18 10.0 SSW 7 9 4 5 1019.1 1016.6 0.0
02/07:30pm 19.6 14.8 -6.1 17 10.3 SW 11 11 6 6 1018.7 1016.2 0.0
02/07:00pm 20.5 16.0 -7.0 15 10.9 SW 9 11 5 6 1018.4 1015.9 0.0
02/06:30pm 22.7 17.8 -7.1 13 12.1 SW 11 15 6 8 1018.0 1015.5 0.0
02/06:00pm 24.7 18.2 -7.7 11 13.2 SW 19 26 10 14 1017.5 1015.0 0.0
02/05:30pm 25.7 19.8 -5.8 12 13.5 SW 17 24 9 13 1017.2 1014.7 0.0
02/05:00pm 26.1 19.6 -5.5 12 13.6 SW 20 30 11 16 1016.9 1014.4 0.0
02/04:30pm 26.4 20.1 -4.2 13 13.6 SW 20 32 11 17 1016.8 1014.3 0.0
02/04:00pm 26.7 20.1 -3.0 14 13.5 WSW 22 35 12 19 1016.6 1014.1 0.0
02/03:30pm 27.5 21.0 -2.3 14 13.8 WSW 22 30 12 16 1016.5 1013.9 0.0

Other Formats:

Comma delimited format used in spreadsheet applications
http://www.bom.gov.au/fwo/IDD60801/IDD60801.94328.axf

JavaScript Object Notation format (JSON) in row-major order
http://www.bom.gov.au/fwo/IDD60801/IDD60801.94328.json